Pagrindinis puslapis
METAR-TAF:

METAR-TAF

Oro uostai :

Ras al Chaima, Jungtiniai Arabų Emyratai

platuma: 25-37N, ilguma: 055-56E, Aukštis: 31 m

Dabartinis oras

Ataskaita buvo paskelbta 39 minutes, ne 02:00 UTC
Vėjas 2 kt iš Rytų
Temperatūra 19°C
Drėgmė 88%
Slėgis 1009 hPa
Matomumas 10 km arba daugiau
nėra debesų žemiau 1500 m ir nėra kamuolinių lietaus debesų

METAR: OMRK 220200Z 08002KT CAVOK 19/17 Q1009 A2981

Laikas: 06:39 (02:39 UTC)

Prognozė

Ataskaita buvo paskelbta 3 valandos ir 39 minutes, ne 23:00 UTC
Prognozė galioja nuo 22 metu 00 UTC su 23 metu 06 UTC
Vėjas 2 kt nuo kintamojo kryptimis
Matomumas 10 km arba daugiau
nėra debesų žemiau 1500 m ir nėra kamuolinių lietaus debesų
Tikimybė 30%
nuo 22 metu 00 UTC su 22 metu 04 UTC
Matomumas: 3000 m
rūkana
Tapsmas
nuo 22 metu 09 UTC su 22 metu 11 UTC
Vėjas 13 kt iš Šiaurės/Šiaurės Vakarų
Tapsmas
nuo 22 metu 14 UTC su 22 metu 16 UTC
Vėjas 2 kt nuo kintamojo kryptimis

TAF: OMRK 212300Z 2200/2306 VRB02KT CAVOK PROB30 2200/2204 3000 BR BECMG 2209/2211 34013KT BECMG 2214/2216 VRB02KT

Orai ataskaitas ir orų prognozės (METAR, TAF).

turimą stotys yra geltonos ir raudonos taškus žemėlapyje.

Perkelti pele per norėdami pamatyti stoties vardą.

Tada spustelėkite, norėdami matyti oro stebėjimo ir prognozės.

Norėdami pakeisti žemėlapį: spustelėkite ant žalios mygtukų su juodo kryžiaus žemyn,; žalią mygtuką su brūkšneliu, jei norite nutolinti; arba žalių rodyklių gretimoms žemėlapius.


METAR-TAF: